sensor_id;sensor_type;location;lat;lon;timestamp;pressure;altitude;pressure_sealevel;temperature;humidity
62978;BME280;49073;42.352;23.808;2023-02-11T00:02:38;96280.94;;;-7.37;76.90
62978;BME280;49073;42.352;23.808;2023-02-11T00:05:38;96272.41;;;-7.31;76.73
62978;BME280;49073;42.352;23.808;2023-02-11T00:08:39;96278.56;;;-7.38;76.47
62978;BME280;49073;42.352;23.808;2023-02-11T00:11:39;96273.97;;;-7.43;76.79
62978;BME280;49073;42.352;23.808;2023-02-11T00:14:40;96276.78;;;-7.31;76.72
62978;BME280;49073;42.352;23.808;2023-02-11T00:17:40;96286.94;;;-7.29;75.68
62978;BME280;49073;42.352;23.808;2023-02-11T00:20:42;96289.13;;;-7.40;75.93
62978;BME280;49073;42.352;23.808;2023-02-11T00:23:44;96282.16;;;-7.53;75.92
62978;BME280;49073;42.352;23.808;2023-02-11T00:26:45;96283.94;;;-7.60;76.11
62978;BME280;49073;42.352;23.808;2023-02-11T00:29:45;96281.53;;;-7.68;76.80
62978;BME280;49073;42.352;23.808;2023-02-11T00:32:46;96275.38;;;-7.61;76.58
62978;BME280;49073;42.352;23.808;2023-02-11T00:35:46;96279.97;;;-7.56;76.80
62978;BME280;49073;42.352;23.808;2023-02-11T00:38:48;96295.69;;;-7.57;76.83
62978;BME280;49073;42.352;23.808;2023-02-11T00:41:49;96267.81;;;-7.49;76.81
62978;BME280;49073;42.352;23.808;2023-02-11T00:44:49;96274.19;;;-7.51;76.26
62978;BME280;49073;42.352;23.808;2023-02-11T00:47:50;96263.03;;;-7.52;76.36
62978;BME280;49073;42.352;23.808;2023-02-11T00:50:50;96264.22;;;-7.61;76.20
62978;BME280;49073;42.352;23.808;2023-02-11T00:53:51;96266.00;;;-7.68;77.26
62978;BME280;49073;42.352;23.808;2023-02-11T00:56:53;96269.41;;;-7.61;77.37
62978;BME280;49073;42.352;23.808;2023-02-11T00:59:53;96263.03;;;-7.52;76.60
62978;BME280;49073;42.352;23.808;2023-02-11T01:02:54;96265.44;;;-7.57;76.02
62978;BME280;49073;42.352;23.808;2023-02-11T01:05:55;96261.59;;;-7.75;76.48
62978;BME280;49073;42.352;23.808;2023-02-11T01:08:55;96260.59;;;-7.74;76.40
62978;BME280;49073;42.352;23.808;2023-02-11T01:11:56;96258.03;;;-7.74;76.92
62978;BME280;49073;42.352;23.808;2023-02-11T01:14:57;96258.00;;;-7.87;77.10
62978;BME280;49073;42.352;23.808;2023-02-11T01:17:58;96249.44;;;-7.81;77.30
62978;BME280;49073;42.352;23.808;2023-02-11T01:20:58;96247.88;;;-7.82;77.45
62978;BME280;49073;42.352;23.808;2023-02-11T01:23:59;96245.66;;;-7.85;77.48
62978;BME280;49073;42.352;23.808;2023-02-11T01:27:00;96241.50;;;-7.79;77.49
62978;BME280;49073;42.352;23.808;2023-02-11T01:30:01;96238.72;;;-7.84;77.94
62978;BME280;49073;42.352;23.808;2023-02-11T01:33:02;96231.75;;;-7.77;78.27
62978;BME280;49073;42.352;23.808;2023-02-11T01:36:04;96228.56;;;-7.72;78.36
62978;BME280;49073;42.352;23.808;2023-02-11T01:39:05;96224.41;;;-7.67;77.89
62978;BME280;49073;42.352;23.808;2023-02-11T01:42:13;96215.22;;;-7.69;77.74
62978;BME280;49073;42.352;23.808;2023-02-11T01:48:49;96204.25;;;-7.31;79.59
62978;BME280;49073;42.352;23.808;2023-02-11T01:52:09;96204.84;;;-7.29;78.84
62978;BME280;49073;42.352;23.808;2023-02-11T01:55:13;96204.38;;;-6.92;78.74
62978;BME280;49073;42.352;23.808;2023-02-11T01:58:33;96201.72;;;-6.65;78.46
62978;BME280;49073;42.352;23.808;2023-02-11T02:01:37;96208.44;;;-6.51;77.98
62978;BME280;49073;42.352;23.808;2023-02-11T02:04:56;96200.66;;;-6.44;77.04
62978;BME280;49073;42.352;23.808;2023-02-11T02:08:08;96196.88;;;-6.55;76.37
62978;BME280;49073;42.352;23.808;2023-02-11T02:11:11;96193.28;;;-6.47;75.94
62978;BME280;49073;42.352;23.808;2023-02-11T02:14:12;96195.16;;;-6.29;75.95
62978;BME280;49073;42.352;23.808;2023-02-11T02:17:25;96184.66;;;-6.09;76.19
62978;BME280;49073;42.352;23.808;2023-02-11T02:21:08;96178.28;;;-6.06;76.19
62978;BME280;49073;42.352;23.808;2023-02-11T02:34:12;96181.50;;;-6.11;75.46
62978;BME280;49073;42.352;23.808;2023-02-11T02:37:37;96193.53;;;-6.17;75.01
62978;BME280;49073;42.352;23.808;2023-02-11T02:41:06;96195.31;;;-6.17;74.60
62978;BME280;49073;42.352;23.808;2023-02-11T02:44:07;96198.94;;;-6.25;74.64
62978;BME280;49073;42.352;23.808;2023-02-11T02:47:08;96203.44;;;-6.46;74.40
62978;BME280;49073;42.352;23.808;2023-02-11T02:50:09;96206.44;;;-6.49;74.35
62978;BME280;49073;42.352;23.808;2023-02-11T02:53:27;96212.38;;;-6.35;74.01
62978;BME280;49073;42.352;23.808;2023-02-11T03:03:40;96225.06;;;-6.72;73.85
62978;BME280;49073;42.352;23.808;2023-02-11T03:09:58;96210.38;;;-6.92;74.54
62978;BME280;49073;42.352;23.808;2023-02-11T03:13:02;96219.34;;;-6.94;74.02
62978;BME280;49073;42.352;23.808;2023-02-11T03:16:14;96220.97;;;-7.07;73.44
62978;BME280;49073;42.352;23.808;2023-02-11T03:19:28;96218.81;;;-7.23;73.61
62978;BME280;49073;42.352;23.808;2023-02-11T03:22:37;96219.00;;;-7.38;73.03
62978;BME280;49073;42.352;23.808;2023-02-11T03:25:49;96215.63;;;-7.66;74.53
62978;BME280;49073;42.352;23.808;2023-02-11T03:32:22;96216.84;;;-7.55;74.32
62978;BME280;49073;42.352;23.808;2023-02-11T03:39:18;96209.84;;;-7.75;76.11
62978;BME280;49073;42.352;23.808;2023-02-11T03:42:24;96217.81;;;-7.69;75.73
62978;BME280;49073;42.352;23.808;2023-02-11T03:45:27;96229.56;;;-7.47;74.48
62978;BME280;49073;42.352;23.808;2023-02-11T03:48:31;96226.78;;;-7.65;74.07
62978;BME280;49073;42.352;23.808;2023-02-11T03:51:33;96226.38;;;-7.82;74.08
62978;BME280;49073;42.352;23.808;2023-02-11T03:54:35;96222.41;;;-7.92;74.50
62978;BME280;49073;42.352;23.808;2023-02-11T03:57:38;96219.56;;;-7.97;74.75
62978;BME280;49073;42.352;23.808;2023-02-11T04:00:40;96226.53;;;-8.04;75.45
62978;BME280;49073;42.352;23.808;2023-02-11T04:03:40;96225.13;;;-8.13;75.38
62978;BME280;49073;42.352;23.808;2023-02-11T04:06:41;96224.53;;;-8.09;75.65
62978;BME280;49073;42.352;23.808;2023-02-11T04:09:42;96230.72;;;-7.96;75.46
62978;BME280;49073;42.352;23.808;2023-02-11T04:12:43;96225.72;;;-8.18;75.52
62978;BME280;49073;42.352;23.808;2023-02-11T04:15:43;96229.69;;;-8.22;75.93
62978;BME280;49073;42.352;23.808;2023-02-11T04:18:45;96222.53;;;-8.20;76.18
62978;BME280;49073;42.352;23.808;2023-02-11T04:21:46;96219.09;;;-8.27;75.73
62978;BME280;49073;42.352;23.808;2023-02-11T04:24:46;96223.03;;;-8.45;76.44
62978;BME280;49073;42.352;23.808;2023-02-11T04:27:47;96220.06;;;-8.42;76.62
62978;BME280;49073;42.352;23.808;2023-02-11T04:30:51;96219.06;;;-8.48;76.76
62978;BME280;49073;42.352;23.808;2023-02-11T04:33:51;96218.88;;;-8.46;77.60
62978;BME280;49073;42.352;23.808;2023-02-11T04:36:52;96204.97;;;-8.32;76.64
62978;BME280;49073;42.352;23.808;2023-02-11T04:39:53;96214.72;;;-8.40;76.42
62978;BME280;49073;42.352;23.808;2023-02-11T04:42:53;96217.31;;;-8.34;76.59
62978;BME280;49073;42.352;23.808;2023-02-11T04:45:56;96210.94;;;-8.38;75.58
62978;BME280;49073;42.352;23.808;2023-02-11T04:48:57;96204.94;;;-8.45;76.17
62978;BME280;49073;42.352;23.808;2023-02-11T04:51:58;96207.91;;;-8.48;76.23
62978;BME280;49073;42.352;23.808;2023-02-11T04:54:59;96212.91;;;-8.53;76.56
62978;BME280;49073;42.352;23.808;2023-02-11T04:57:59;96203.31;;;-8.73;77.01
62978;BME280;49073;42.352;23.808;2023-02-11T05:01:10;96215.03;;;-8.70;77.03
62978;BME280;49073;42.352;23.808;2023-02-11T05:04:11;96205.88;;;-8.66;77.20
62978;BME280;49073;42.352;23.808;2023-02-11T05:07:11;96198.53;;;-8.69;77.30
62978;BME280;49073;42.352;23.808;2023-02-11T05:10:12;96201.16;;;-8.63;77.37
62978;BME280;49073;42.352;23.808;2023-02-11T05:13:13;96196.97;;;-8.64;76.87
62978;BME280;49073;42.352;23.808;2023-02-11T05:16:15;96205.31;;;-8.62;76.82
62978;BME280;49073;42.352;23.808;2023-02-11T05:19:16;96208.09;;;-8.63;76.90
62978;BME280;49073;42.352;23.808;2023-02-11T05:22:17;96213.84;;;-8.68;77.33
62978;BME280;49073;42.352;23.808;2023-02-11T05:25:18;96209.16;;;-8.51;76.75
62978;BME280;49073;42.352;23.808;2023-02-11T05:28:19;96206.09;;;-8.61;76.66
62978;BME280;49073;42.352;23.808;2023-02-11T05:31:20;96201.56;;;-8.52;77.12
62978;BME280;49073;42.352;23.808;2023-02-11T05:34:21;96216.66;;;-8.56;76.39
62978;BME280;49073;42.352;23.808;2023-02-11T05:37:21;96219.19;;;-8.69;76.55
62978;BME280;49073;42.352;23.808;2023-02-11T05:40:22;96227.97;;;-8.64;76.86
62978;BME280;49073;42.352;23.808;2023-02-11T05:43:22;96226.44;;;-8.51;76.42
62978;BME280;49073;42.352;23.808;2023-02-11T05:46:22;96215.25;;;-8.65;76.99
62978;BME280;49073;42.352;23.808;2023-02-11T05:49:23;96213.91;;;-8.54;77.34
62978;BME280;49073;42.352;23.808;2023-02-11T05:52:24;96225.63;;;-8.58;77.00
62978;BME280;49073;42.352;23.808;2023-02-11T05:55:25;96215.13;;;-8.30;77.48
62978;BME280;49073;42.352;23.808;2023-02-11T05:58:25;96214.72;;;-8.40;77.41
62978;BME280;49073;42.352;23.808;2023-02-11T06:01:26;96212.31;;;-8.49;78.14
62978;BME280;49073;42.352;23.808;2023-02-11T06:04:27;96219.13;;;-8.21;77.94
62978;BME280;49073;42.352;23.808;2023-02-11T06:07:27;96215.31;;;-8.32;78.72
62978;BME280;49073;42.352;23.808;2023-02-11T06:10:28;96215.16;;;-8.16;79.29
62978;BME280;49073;42.352;23.808;2023-02-11T06:13:29;96219.00;;;-7.92;78.82
62978;BME280;49073;42.352;23.808;2023-02-11T06:16:29;96214.25;;;-7.75;78.50
62978;BME280;49073;42.352;23.808;2023-02-11T06:19:29;96223.00;;;-7.42;78.18
62978;BME280;49073;42.352;23.808;2023-02-11T06:22:30;96214.00;;;-7.13;78.43
62978;BME280;49073;42.352;23.808;2023-02-11T06:25:31;96212.38;;;-6.94;78.34
62978;BME280;49073;42.352;23.808;2023-02-11T06:28:32;96207.75;;;-6.85;78.29
62978;BME280;49073;42.352;23.808;2023-02-11T06:31:32;96214.34;;;-6.89;77.77
62978;BME280;49073;42.352;23.808;2023-02-11T06:34:33;96224.53;;;-6.88;77.55
62978;BME280;49073;42.352;23.808;2023-02-11T06:37:34;96217.34;;;-6.85;77.55
62978;BME280;49073;42.352;23.808;2023-02-11T06:40:34;96219.88;;;-6.72;76.39
62978;BME280;49073;42.352;23.808;2023-02-11T06:43:35;96215.66;;;-6.60;74.54
62978;BME280;49073;42.352;23.808;2023-02-11T06:46:36;96208.84;;;-6.47;75.10
62978;BME280;49073;42.352;23.808;2023-02-11T06:49:37;96218.38;;;-6.41;74.08
62978;BME280;49073;42.352;23.808;2023-02-11T06:52:37;96220.94;;;-6.34;74.24
62978;BME280;49073;42.352;23.808;2023-02-11T06:55:38;96214.31;;;-6.30;73.77
62978;BME280;49073;42.352;23.808;2023-02-11T06:58:38;96210.69;;;-6.16;72.93
62978;BME280;49073;42.352;23.808;2023-02-11T07:01:39;96206.59;;;-6.05;72.09
62978;BME280;49073;42.352;23.808;2023-02-11T07:04:40;96213.88;;;-5.88;71.91
62978;BME280;49073;42.352;23.808;2023-02-11T07:07:40;96201.00;;;-5.76;71.23
62978;BME280;49073;42.352;23.808;2023-02-11T07:10:41;96206.91;;;-5.62;71.86
62978;BME280;49073;42.352;23.808;2023-02-11T07:13:42;96203.25;;;-5.55;73.57
62978;BME280;49073;42.352;23.808;2023-02-11T07:16:42;96202.47;;;-5.36;73.18
62978;BME280;49073;42.352;23.808;2023-02-11T07:19:43;96197.88;;;-5.34;72.64
62978;BME280;49073;42.352;23.808;2023-02-11T07:22:43;96194.75;;;-5.18;71.12
62978;BME280;49073;42.352;23.808;2023-02-11T07:25:44;96192.63;;;-5.09;70.84
62978;BME280;49073;42.352;23.808;2023-02-11T07:28:44;96193.16;;;-5.00;70.59
62978;BME280;49073;42.352;23.808;2023-02-11T07:31:45;96202.63;;;-4.69;71.23
62978;BME280;49073;42.352;23.808;2023-02-11T07:34:46;96195.63;;;-4.68;70.78
62978;BME280;49073;42.352;23.808;2023-02-11T07:37:47;96197.34;;;-4.62;68.45
62978;BME280;49073;42.352;23.808;2023-02-11T07:40:48;96201.44;;;-4.54;65.83
62978;BME280;49073;42.352;23.808;2023-02-11T07:43:49;96194.34;;;-4.47;63.98
62978;BME280;49073;42.352;23.808;2023-02-11T07:46:50;96190.94;;;-4.29;64.85
62978;BME280;49073;42.352;23.808;2023-02-11T07:49:50;96195.53;;;-4.12;66.26
62978;BME280;49073;42.352;23.808;2023-02-11T07:52:51;96190.66;;;-4.09;64.69
62978;BME280;49073;42.352;23.808;2023-02-11T07:55:51;96195.03;;;-3.90;65.47
62978;BME280;49073;42.352;23.808;2023-02-11T07:58:53;96192.59;;;-3.73;65.92
62978;BME280;49073;42.352;23.808;2023-02-11T08:01:55;96187.28;;;-3.55;66.20
62978;BME280;49073;42.352;23.808;2023-02-11T08:04:55;96184.44;;;-3.41;65.53
62978;BME280;49073;42.352;23.808;2023-02-11T08:07:56;96182.19;;;-3.26;65.22
62978;BME280;49073;42.352;23.808;2023-02-11T08:10:57;96183.91;;;-3.19;63.29
62978;BME280;49073;42.352;23.808;2023-02-11T08:13:57;96175.38;;;-3.03;63.77
62978;BME280;49073;42.352;23.808;2023-02-11T08:16:59;96175.03;;;-2.83;62.53
62978;BME280;49073;42.352;23.808;2023-02-11T08:20:00;96168.50;;;-2.68;62.56
62978;BME280;49073;42.352;23.808;2023-02-11T08:23:00;96162.84;;;-2.36;61.70
62978;BME280;49073;42.352;23.808;2023-02-11T08:26:03;96164.09;;;-2.10;60.97
62978;BME280;49073;42.352;23.808;2023-02-11T08:29:14;96165.31;;;-2.00;60.32
62978;BME280;49073;42.352;23.808;2023-02-11T08:32:15;96160.84;;;-1.71;59.94
62978;BME280;49073;42.352;23.808;2023-02-11T08:35:15;96151.38;;;-1.55;59.47
62978;BME280;49073;42.352;23.808;2023-02-11T08:38:16;96153.63;;;-1.47;60.03
62978;BME280;49073;42.352;23.808;2023-02-11T08:41:16;96152.19;;;-1.37;59.10
62978;BME280;49073;42.352;23.808;2023-02-11T08:44:19;96152.53;;;-1.11;59.04
62978;BME280;49073;42.352;23.808;2023-02-11T08:47:19;96146.19;;;-1.15;57.66
62978;BME280;49073;42.352;23.808;2023-02-11T08:50:20;96155.50;;;-0.85;57.91
62978;BME280;49073;42.352;23.808;2023-02-11T08:53:20;96157.31;;;-0.64;57.59
62978;BME280;49073;42.352;23.808;2023-02-11T08:56:22;96151.69;;;-0.50;56.34
62978;BME280;49073;42.352;23.808;2023-02-11T08:59:23;96162.16;;;-0.28;56.01
62978;BME280;49073;42.352;23.808;2023-02-11T09:02:23;96154.25;;;-0.06;54.93
62978;BME280;49073;42.352;23.808;2023-02-11T09:05:24;96153.00;;;0.02;54.72
62978;BME280;49073;42.352;23.808;2023-02-11T09:08:24;96152.16;;;0.24;53.19
62978;BME280;49073;42.352;23.808;2023-02-11T09:11:32;96155.34;;;0.31;51.28
62978;BME280;49073;42.352;23.808;2023-02-11T09:14:33;96145.34;;;0.61;52.65
62978;BME280;49073;42.352;23.808;2023-02-11T09:17:33;96143.75;;;1.08;50.50
62978;BME280;49073;42.352;23.808;2023-02-11T09:20:34;96144.84;;;1.17;51.48
62978;BME280;49073;42.352;23.808;2023-02-11T09:23:35;96146.41;;;1.13;49.62
62978;BME280;49073;42.352;23.808;2023-02-11T09:26:36;96141.78;;;1.30;49.20
62978;BME280;49073;42.352;23.808;2023-02-11T09:29:36;96136.75;;;1.24;49.25
62978;BME280;49073;42.352;23.808;2023-02-11T09:32:37;96131.84;;;1.43;50.12
62978;BME280;49073;42.352;23.808;2023-02-11T09:35:38;96129.78;;;1.71;48.37
62978;BME280;49073;42.352;23.808;2023-02-11T09:38:38;96116.69;;;1.81;46.83
62978;BME280;49073;42.352;23.808;2023-02-11T09:44:47;96112.50;;;2.22;47.38
62978;BME280;49073;42.352;23.808;2023-02-11T09:50:57;96095.69;;;2.38;45.45
62978;BME280;49073;42.352;23.808;2023-02-11T09:54:09;96086.44;;;2.46;45.70
62978;BME280;49073;42.352;23.808;2023-02-11T09:57:11;96089.28;;;2.75;44.74
62978;BME280;49073;42.352;23.808;2023-02-11T10:00:21;96078.19;;;2.84;44.36
62978;BME280;49073;42.352;23.808;2023-02-11T10:06:53;96066.34;;;2.86;43.65
62978;BME280;49073;42.352;23.808;2023-02-11T10:10:10;96055.50;;;3.03;44.01
62978;BME280;49073;42.352;23.808;2023-02-11T10:13:28;96048.22;;;2.74;43.03
62978;BME280;49073;42.352;23.808;2023-02-11T10:20:14;96030.63;;;3.25;42.36
62978;BME280;49073;42.352;23.808;2023-02-11T10:23:22;96033.50;;;3.34;42.63
62978;BME280;49073;42.352;23.808;2023-02-11T10:26:26;96018.28;;;3.66;41.17
62978;BME280;49073;42.352;23.808;2023-02-11T10:36:12;95988.84;;;4.42;40.86
62978;BME280;49073;42.352;23.808;2023-02-11T10:39:17;95988.28;;;4.20;40.05
62978;BME280;49073;42.352;23.808;2023-02-11T10:42:18;95975.13;;;4.15;40.50
62978;BME280;49073;42.352;23.808;2023-02-11T10:49:00;95964.84;;;3.84;39.85
62978;BME280;49073;42.352;23.808;2023-02-11T10:52:24;95961.22;;;3.80;40.17
62978;BME280;49073;42.352;23.808;2023-02-11T10:55:26;95956.81;;;4.00;39.42
62978;BME280;49073;42.352;23.808;2023-02-11T10:58:57;95958.00;;;4.13;39.56
62978;BME280;49073;42.352;23.808;2023-02-11T11:02:04;95944.50;;;4.19;39.44
62978;BME280;49073;42.352;23.808;2023-02-11T11:05:19;95939.22;;;4.19;39.50
62978;BME280;49073;42.352;23.808;2023-02-11T11:08:23;95936.03;;;4.42;39.30
62978;BME280;49073;42.352;23.808;2023-02-11T11:11:50;95921.31;;;4.16;38.87
62978;BME280;49073;42.352;23.808;2023-02-11T11:14:58;95917.25;;;4.00;38.31
62978;BME280;49073;42.352;23.808;2023-02-11T11:21:39;95908.72;;;4.32;37.94
62978;BME280;49073;42.352;23.808;2023-02-11T11:24:43;95893.25;;;4.26;37.44
62978;BME280;49073;42.352;23.808;2023-02-11T11:27:48;95893.31;;;4.20;37.23
62978;BME280;49073;42.352;23.808;2023-02-11T11:30:51;95883.81;;;4.39;37.77
62978;BME280;49073;42.352;23.808;2023-02-11T11:33:55;95881.69;;;4.41;37.30
62978;BME280;49073;42.352;23.808;2023-02-11T11:36:57;95875.44;;;4.56;36.80
62978;BME280;49073;42.352;23.808;2023-02-11T11:43:18;95863.09;;;4.70;37.48
62978;BME280;49073;42.352;23.808;2023-02-11T11:46:29;95864.09;;;4.36;38.55
62978;BME280;49073;42.352;23.808;2023-02-11T11:56:44;95863.47;;;4.63;37.81
62978;BME280;49073;42.352;23.808;2023-02-11T11:59:23;95853.25;;;4.57;38.80
62978;BME280;49073;42.352;23.808;2023-02-11T12:12:32;95849.38;;;4.30;39.72
62978;BME280;49073;42.352;23.808;2023-02-11T12:16:01;95833.28;;;4.50;39.02
62978;BME280;49073;42.352;23.808;2023-02-11T12:29:38;95821.00;;;4.60;39.23
62978;BME280;49073;42.352;23.808;2023-02-11T12:36:01;95817.72;;;4.30;39.65
62978;BME280;49073;42.352;23.808;2023-02-11T12:42:21;95817.00;;;4.43;39.86
62978;BME280;49073;42.352;23.808;2023-02-11T12:46:06;95809.44;;;4.56;39.50
62978;BME280;49073;42.352;23.808;2023-02-11T12:49:12;95802.81;;;4.39;39.01
62978;BME280;49073;42.352;23.808;2023-02-11T12:52:57;95793.97;;;4.30;39.29
62978;BME280;49073;42.352;23.808;2023-02-11T13:10:26;95784.50;;;4.29;39.14
62978;BME280;49073;42.352;23.808;2023-02-11T13:13:36;95781.72;;;4.39;38.43
62978;BME280;49073;42.352;23.808;2023-02-11T13:16:46;95778.56;;;4.37;38.22
62978;BME280;49073;42.352;23.808;2023-02-11T13:19:57;95783.06;;;4.36;38.26
62978;BME280;49073;42.352;23.808;2023-02-11T13:29:55;95760.97;;;4.13;38.73
62978;BME280;49073;42.352;23.808;2023-02-11T13:33:05;95762.56;;;4.09;38.57
62978;BME280;49073;42.352;23.808;2023-02-11T13:36:18;95757.00;;;3.91;38.06
62978;BME280;49073;42.352;23.808;2023-02-11T13:39:20;95759.13;;;3.89;37.10
62978;BME280;49073;42.352;23.808;2023-02-11T13:42:21;95760.84;;;3.80;37.14
62978;BME280;49073;42.352;23.808;2023-02-11T13:45:29;95767.84;;;3.66;36.88
62978;BME280;49073;42.352;23.808;2023-02-11T13:48:33;95764.72;;;3.63;37.50
62978;BME280;49073;42.352;23.808;2023-02-11T13:51:37;95760.00;;;3.60;37.09
62978;BME280;49073;42.352;23.808;2023-02-11T13:54:40;95759.94;;;3.66;37.04
62978;BME280;49073;42.352;23.808;2023-02-11T13:57:41;95757.59;;;3.64;37.35
62978;BME280;49073;42.352;23.808;2023-02-11T14:00:50;95755.50;;;3.61;37.25
62978;BME280;49073;42.352;23.808;2023-02-11T14:04:18;95749.06;;;3.48;37.72
62978;BME280;49073;42.352;23.808;2023-02-11T14:07:37;95745.59;;;3.53;37.59
62978;BME280;49073;42.352;23.808;2023-02-11T14:14:27;95750.75;;;3.39;37.86
62978;BME280;49073;42.352;23.808;2023-02-11T14:17:29;95749.28;;;3.27;38.23
62978;BME280;49073;42.352;23.808;2023-02-11T14:20:36;95740.97;;;3.15;39.25
62978;BME280;49073;42.352;23.808;2023-02-11T14:23:37;95743.31;;;3.16;39.00
62978;BME280;49073;42.352;23.808;2023-02-11T14:26:50;95736.22;;;3.17;39.35
62978;BME280;49073;42.352;23.808;2023-02-11T14:34:17;95738.50;;;2.99;40.09
62978;BME280;49073;42.352;23.808;2023-02-11T14:37:00;95731.91;;;2.97;40.28
62978;BME280;49073;42.352;23.808;2023-02-11T14:40:41;95735.47;;;2.82;41.14
62978;BME280;49073;42.352;23.808;2023-02-11T14:43:47;95729.75;;;2.74;41.54
62978;BME280;49073;42.352;23.808;2023-02-11T14:46:50;95731.88;;;2.72;41.27
62978;BME280;49073;42.352;23.808;2023-02-11T14:49:52;95736.94;;;2.64;41.46
62978;BME280;49073;42.352;23.808;2023-02-11T14:52:54;95735.44;;;2.52;42.23
62978;BME280;49073;42.352;23.808;2023-02-11T14:55:55;95735.00;;;2.40;42.16
62978;BME280;49073;42.352;23.808;2023-02-11T14:58:56;95735.59;;;2.31;42.23
62978;BME280;49073;42.352;23.808;2023-02-11T15:01:57;95731.69;;;2.24;42.75
62978;BME280;49073;42.352;23.808;2023-02-11T15:05:22;95730.13;;;2.23;42.56
62978;BME280;49073;42.352;23.808;2023-02-11T15:08:26;95732.22;;;2.21;43.19
62978;BME280;49073;42.352;23.808;2023-02-11T15:11:30;95740.69;;;2.12;43.33
62978;BME280;49073;42.352;23.808;2023-02-11T15:14:35;95736.28;;;2.02;43.62
62978;BME280;49073;42.352;23.808;2023-02-11T15:17:36;95737.13;;;1.93;43.60
62978;BME280;49073;42.352;23.808;2023-02-11T15:20:40;95742.44;;;1.82;44.24
62978;BME280;49073;42.352;23.808;2023-02-11T15:23:40;95740.63;;;1.78;44.59
62978;BME280;49073;42.352;23.808;2023-02-11T15:27:10;95741.41;;;1.73;44.40
62978;BME280;49073;42.352;23.808;2023-02-11T15:33:22;95740.69;;;1.62;45.10
62978;BME280;49073;42.352;23.808;2023-02-11T15:36:24;95737.56;;;1.55;45.44
62978;BME280;49073;42.352;23.808;2023-02-11T15:42:30;95735.75;;;1.40;45.63
62978;BME280;49073;42.352;23.808;2023-02-11T15:48:43;95731.59;;;1.28;45.40
62978;BME280;49073;42.352;23.808;2023-02-11T15:51:45;95735.28;;;1.22;45.22
62978;BME280;49073;42.352;23.808;2023-02-11T15:54:46;95736.88;;;1.23;45.07
62978;BME280;49073;42.352;23.808;2023-02-11T15:57:55;95738.19;;;1.15;45.54
62978;BME280;49073;42.352;23.808;2023-02-11T16:00:56;95740.81;;;1.21;45.71
62978;BME280;49073;42.352;23.808;2023-02-11T16:03:59;95742.94;;;1.08;45.60
62978;BME280;49073;42.352;23.808;2023-02-11T16:07:00;95747.66;;;1.06;45.76
62978;BME280;49073;42.352;23.808;2023-02-11T16:10:01;95739.00;;;0.90;46.00
62978;BME280;49073;42.352;23.808;2023-02-11T16:16:18;95736.41;;;0.85;45.87
62978;BME280;49073;42.352;23.808;2023-02-11T16:19:23;95732.97;;;0.84;45.97
62978;BME280;49073;42.352;23.808;2023-02-11T16:22:27;95739.56;;;0.71;46.34
62978;BME280;49073;42.352;23.808;2023-02-11T16:25:29;95741.38;;;0.50;47.67
62978;BME280;49073;42.352;23.808;2023-02-11T16:28:31;95738.75;;;0.35;47.62
62978;BME280;49073;42.352;23.808;2023-02-11T16:31:37;95733.47;;;0.14;48.59
62978;BME280;49073;42.352;23.808;2023-02-11T16:34:38;95735.25;;;-0.12;49.51
62978;BME280;49073;42.352;23.808;2023-02-11T16:37:38;95736.53;;;-0.25;49.82
62978;BME280;49073;42.352;23.808;2023-02-11T16:40:39;95732.06;;;-0.25;50.18
62978;BME280;49073;42.352;23.808;2023-02-11T16:43:39;95737.50;;;-0.42;52.05
62978;BME280;49073;42.352;23.808;2023-02-11T16:46:40;95750.03;;;-0.49;52.69
62978;BME280;49073;42.352;23.808;2023-02-11T16:49:41;95747.06;;;-0.68;53.65
62978;BME280;49073;42.352;23.808;2023-02-11T16:52:42;95737.84;;;-0.86;54.31
62978;BME280;49073;42.352;23.808;2023-02-11T16:55:42;95748.53;;;-0.88;54.34
62978;BME280;49073;42.352;23.808;2023-02-11T16:58:44;95745.31;;;-1.06;55.02
62978;BME280;49073;42.352;23.808;2023-02-11T17:01:45;95746.22;;;-1.22;55.26
62978;BME280;49073;42.352;23.808;2023-02-11T17:04:47;95752.78;;;-1.20;55.81
62978;BME280;49073;42.352;23.808;2023-02-11T17:07:48;95755.69;;;-1.16;54.57
62978;BME280;49073;42.352;23.808;2023-02-11T17:10:49;95752.34;;;-1.06;55.07
62978;BME280;49073;42.352;23.808;2023-02-11T17:13:49;95745.28;;;-1.11;55.85
62978;BME280;49073;42.352;23.808;2023-02-11T17:16:50;95754.13;;;-1.17;55.24
62978;BME280;49073;42.352;23.808;2023-02-11T17:19:50;95752.44;;;-1.28;56.61
62978;BME280;49073;42.352;23.808;2023-02-11T17:22:51;95745.00;;;-1.47;56.56
62978;BME280;49073;42.352;23.808;2023-02-11T17:25:55;95752.09;;;-1.42;56.68
62978;BME280;49073;42.352;23.808;2023-02-11T17:28:56;95749.91;;;-1.51;56.15
62978;BME280;49073;42.352;23.808;2023-02-11T17:31:56;95748.56;;;-1.58;55.79
62978;BME280;49073;42.352;23.808;2023-02-11T17:34:57;95746.16;;;-1.65;55.88
62978;BME280;49073;42.352;23.808;2023-02-11T17:37:57;95746.81;;;-1.48;54.70
62978;BME280;49073;42.352;23.808;2023-02-11T17:41:00;95754.56;;;-1.58;56.58
62978;BME280;49073;42.352;23.808;2023-02-11T17:44:00;95753.78;;;-1.58;57.21
62978;BME280;49073;42.352;23.808;2023-02-11T17:47:01;95752.22;;;-1.59;55.59
62978;BME280;49073;42.352;23.808;2023-02-11T17:50:03;95759.13;;;-1.76;56.05
62978;BME280;49073;42.352;23.808;2023-02-11T17:53:03;95754.63;;;-1.80;55.42
62978;BME280;49073;42.352;23.808;2023-02-11T17:56:04;95750.97;;;-2.07;56.61
62978;BME280;49073;42.352;23.808;2023-02-11T17:59:07;95754.16;;;-2.05;56.97
62978;BME280;49073;42.352;23.808;2023-02-11T18:02:12;95759.63;;;-2.28;56.73
62978;BME280;49073;42.352;23.808;2023-02-11T18:05:13;95760.81;;;-2.36;57.92
62978;BME280;49073;42.352;23.808;2023-02-11T18:08:14;95757.81;;;-2.50;59.32
62978;BME280;49073;42.352;23.808;2023-02-11T18:11:15;95759.88;;;-2.52;59.25
62978;BME280;49073;42.352;23.808;2023-02-11T18:14:16;95765.81;;;-2.57;59.33
62978;BME280;49073;42.352;23.808;2023-02-11T18:17:16;95764.16;;;-2.63;59.80
62978;BME280;49073;42.352;23.808;2023-02-11T18:20:17;95763.13;;;-2.62;59.49
62978;BME280;49073;42.352;23.808;2023-02-11T18:23:18;95772.56;;;-2.78;60.00